createdAt,value
2019-02-08T00:00:28.138Z,13.87
2019-02-08T00:02:56.655Z,14.90
2019-02-08T00:05:25.102Z,21.83
2019-02-08T00:07:53.645Z,13.17
2019-02-08T00:10:22.254Z,10.77
2019-02-08T00:12:50.931Z,9.50
2019-02-08T00:19:15.263Z,9.13
2019-02-08T00:24:47.561Z,8.20
2019-02-08T00:27:16.054Z,8.27
2019-02-08T00:29:44.529Z,7.23
2019-02-08T00:32:12.963Z,7.97
2019-02-08T00:34:41.396Z,9.00
2019-02-08T00:37:10.211Z,7.47
2019-02-08T00:39:38.632Z,7.20
2019-02-08T00:42:07.067Z,7.70
2019-02-08T00:44:35.494Z,8.27
2019-02-08T00:47:04.016Z,8.70
2019-02-08T00:49:32.422Z,7.23
2019-02-08T00:52:00.853Z,7.40
2019-02-08T00:54:29.599Z,6.77
2019-02-08T00:56:58.035Z,7.43
2019-02-08T00:59:26.461Z,7.07
2019-02-08T01:01:54.878Z,6.80
2019-02-08T01:04:23.321Z,7.30
2019-02-08T01:06:51.755Z,6.80
2019-02-08T01:09:20.175Z,6.07
2019-02-08T01:11:48.882Z,6.10
2019-02-08T01:14:17.381Z,6.27
2019-02-08T01:16:45.819Z,6.97
2019-02-08T01:19:14.254Z,6.63
2019-02-08T01:21:42.676Z,6.93
2019-02-08T01:24:11.139Z,6.83
2019-02-08T01:26:39.590Z,5.67
2019-02-08T01:29:08.118Z,6.17
2019-02-08T01:31:36.527Z,6.67
2019-02-08T01:34:05.302Z,6.50
2019-02-08T01:36:33.735Z,6.30
2019-02-08T01:39:02.193Z,7.27
2019-02-08T01:41:30.620Z,6.73
2019-02-08T01:43:59.066Z,6.17
2019-02-08T01:46:27.471Z,5.70
2019-02-08T01:48:55.902Z,6.07
2019-02-08T01:51:24.326Z,5.80
2019-02-08T01:53:52.761Z,6.20
2019-02-08T01:56:21.191Z,6.50
2019-02-08T01:58:49.618Z,7.10
2019-02-08T02:01:18.037Z,5.67
2019-02-08T02:03:46.491Z,5.90
2019-02-08T02:06:14.906Z,6.87
2019-02-08T02:08:43.355Z,7.20
2019-02-08T02:11:11.778Z,4.97
2019-02-08T02:13:40.233Z,5.00
2019-02-08T02:16:08.665Z,4.67
2019-02-08T02:18:37.087Z,5.53
2019-02-08T02:21:05.592Z,4.60
2019-02-08T02:23:34.013Z,5.33
2019-02-08T02:26:02.463Z,5.20
2019-02-08T02:28:30.888Z,4.80
2019-02-08T02:30:59.334Z,4.70
2019-02-08T02:33:27.738Z,4.90
2019-02-08T02:35:56.175Z,7.73
2019-02-08T02:38:24.599Z,6.90
2019-02-08T02:40:53.041Z,5.10
2019-02-08T02:43:21.590Z,4.70
2019-02-08T02:45:50.037Z,4.90
2019-02-08T02:48:18.530Z,3.67
2019-02-08T02:50:46.960Z,4.07
2019-02-08T02:53:15.386Z,3.70
2019-02-08T02:55:43.832Z,3.20
2019-02-08T02:58:12.250Z,4.40
2019-02-08T03:00:45.211Z,3.20
2019-02-08T03:03:14.460Z,4.00
2019-02-08T03:05:42.966Z,3.90
2019-02-08T03:08:13.656Z,3.73
2019-02-08T03:10:42.096Z,3.27
2019-02-08T03:13:11.036Z,3.63
2019-02-08T03:15:39.636Z,3.67
2019-02-08T03:18:08.196Z,4.23
2019-02-08T03:20:36.720Z,3.87
2019-02-08T03:23:05.579Z,4.30
2019-02-08T03:25:34.469Z,3.97
2019-02-08T03:28:02.992Z,4.50
2019-02-08T03:30:48.514Z,4.67
2019-02-08T03:33:16.935Z,3.60
2019-02-08T03:35:45.382Z,4.00
2019-02-08T03:38:13.813Z,3.70
2019-02-08T03:40:42.246Z,4.60
2019-02-08T03:43:10.739Z,4.77
2019-02-08T03:45:43.583Z,4.50
2019-02-08T03:48:12.433Z,4.47
2019-02-08T03:50:41.093Z,4.83
2019-02-08T03:53:09.974Z,3.83
2019-02-08T03:55:38.957Z,4.20
2019-02-08T03:58:07.914Z,4.30
2019-02-08T04:00:54.436Z,4.63
2019-02-08T04:03:23.118Z,4.00
2019-02-08T04:05:51.618Z,4.10
2019-02-08T04:08:20.050Z,4.73
2019-02-08T04:10:48.486Z,3.43
2019-02-08T04:13:16.930Z,4.13
2019-02-08T04:15:45.442Z,4.40
2019-02-08T04:18:13.866Z,4.00
2019-02-08T04:20:42.305Z,4.70
2019-02-08T04:23:10.727Z,4.60
2019-02-08T04:25:39.232Z,3.60
2019-02-08T04:28:07.663Z,3.93
2019-02-08T04:30:36.099Z,3.47
2019-02-08T04:33:05.182Z,4.20
2019-02-08T04:35:33.599Z,5.60
2019-02-08T04:38:02.104Z,4.37
2019-02-08T04:40:30.522Z,4.43
2019-02-08T04:42:59.033Z,3.73
2019-02-08T04:45:27.519Z,4.53
2019-02-08T04:47:56.024Z,4.20
2019-02-08T04:50:25.902Z,3.70
2019-02-08T04:52:54.603Z,4.37
2019-02-08T04:55:23.327Z,3.93
2019-02-08T04:57:51.832Z,4.30
2019-02-08T05:00:34.758Z,4.30
2019-02-08T05:03:03.344Z,3.90
2019-02-08T05:05:31.783Z,4.07
2019-02-08T05:08:00.218Z,4.00
2019-02-08T05:10:30.782Z,4.93
2019-02-08T05:12:59.464Z,4.83
2019-02-08T05:15:28.026Z,3.90
2019-02-08T05:17:56.484Z,4.70
2019-02-08T05:20:27.265Z,4.70
2019-02-08T05:22:55.720Z,4.10
2019-02-08T05:25:24.169Z,3.30
2019-02-08T05:27:52.934Z,4.17
2019-02-08T05:30:26.362Z,5.33
2019-02-08T05:32:54.865Z,3.60
2019-02-08T05:35:23.688Z,4.47
2019-02-08T05:37:52.209Z,4.47
2019-02-08T05:40:21.261Z,4.60
2019-02-08T05:42:49.697Z,4.20
2019-02-08T05:45:22.572Z,4.70
2019-02-08T05:47:51.013Z,4.27
2019-02-08T05:50:29.304Z,4.03
2019-02-08T05:52:57.999Z,3.40
2019-02-08T05:55:28.975Z,4.00
2019-02-08T05:57:57.601Z,4.40
2019-02-08T06:00:36.269Z,3.60
2019-02-08T06:03:05.434Z,3.73
2019-02-08T06:05:33.927Z,5.17
2019-02-08T06:08:02.385Z,3.27
2019-02-08T06:10:30.894Z,3.50
2019-02-08T06:12:59.322Z,3.50
2019-02-08T06:15:27.998Z,3.47
2019-02-08T06:17:56.433Z,3.20
2019-02-08T06:20:26.616Z,3.50
2019-02-08T06:22:55.041Z,2.90
2019-02-08T06:25:24.250Z,3.10
2019-02-08T06:27:53.098Z,3.37
2019-02-08T06:30:29.847Z,3.50
2019-02-08T06:32:58.346Z,3.17
2019-02-08T06:35:27.735Z,3.20
2019-02-08T06:37:56.233Z,3.33
2019-02-08T06:40:36.379Z,3.10
2019-02-08T06:43:05.855Z,4.27
2019-02-08T06:45:34.313Z,3.30
2019-02-08T06:48:02.726Z,4.00
2019-02-08T06:50:31.187Z,3.30
2019-02-08T06:52:59.609Z,3.90
2019-02-08T06:55:28.042Z,4.07
2019-02-08T06:58:04.284Z,4.40
2019-02-08T07:00:34.366Z,4.60
2019-02-08T07:03:07.447Z,3.63
2019-02-08T07:05:37.528Z,3.20
2019-02-08T07:08:10.293Z,4.83
2019-02-08T07:10:56.462Z,3.97
2019-02-08T07:13:29.492Z,5.00
2019-02-08T07:15:59.607Z,4.10
2019-02-08T07:18:29.721Z,4.10
2019-02-08T07:21:08.752Z,3.60
2019-02-08T07:23:55.080Z,3.63
2019-02-08T07:26:39.985Z,4.27
2019-02-08T07:29:10.258Z,3.50
2019-02-08T07:31:40.345Z,3.23
2019-02-08T07:34:16.498Z,3.43
2019-02-08T07:36:46.762Z,3.83
2019-02-08T07:39:32.780Z,3.83
2019-02-08T07:42:03.387Z,3.50
2019-02-08T07:44:38.696Z,2.90
2019-02-08T07:47:11.875Z,3.23
2019-02-08T07:49:43.671Z,3.40
2019-02-08T07:52:13.754Z,4.40
2019-02-08T07:54:59.158Z,2.80
2019-02-08T07:57:29.493Z,3.20
2019-02-08T08:00:08.679Z,3.77
2019-02-08T08:02:53.647Z,3.00
2019-02-08T08:05:24.563Z,3.90
2019-02-08T08:08:00.496Z,2.73
2019-02-08T08:10:33.592Z,2.47
2019-02-08T08:13:15.775Z,2.60
2019-02-08T08:15:54.752Z,2.90
2019-02-08T08:18:24.971Z,2.83
2019-02-08T08:20:58.115Z,2.97
2019-02-08T08:23:29.526Z,3.20
2019-02-08T08:26:18.339Z,2.73
2019-02-08T08:29:03.236Z,3.13
2019-02-08T08:31:36.358Z,3.80
2019-02-08T08:34:13.651Z,4.10
2019-02-08T08:37:08.738Z,2.97
2019-02-08T08:39:51.976Z,2.70
2019-02-08T08:42:35.525Z,3.40
2019-02-08T08:45:15.529Z,2.63
2019-02-08T08:48:15.578Z,3.10
2019-02-08T08:50:55.970Z,3.13
2019-02-08T08:53:44.026Z,3.47
2019-02-08T08:56:21.711Z,3.87
2019-02-08T08:58:59.139Z,2.60
2019-02-08T09:01:33.355Z,3.30
2019-02-08T09:04:13.788Z,2.37
2019-02-08T09:07:19.767Z,2.83
2019-02-08T09:09:56.866Z,3.37
2019-02-08T09:12:36.935Z,2.80
2019-02-08T09:15:11.108Z,2.27
2019-02-08T09:17:51.303Z,2.30
2019-02-08T09:20:43.551Z,2.60
2019-02-08T09:23:15.046Z,2.87
2019-02-08T09:26:11.834Z,2.87
2019-02-08T09:28:59.878Z,2.70
2019-02-08T09:31:31.427Z,2.57
2019-02-08T09:34:08.844Z,3.20
2019-02-08T09:36:58.416Z,2.10
2019-02-08T09:39:44.818Z,1.97
2019-02-08T09:42:31.315Z,2.10
2019-02-08T09:45:17.736Z,3.80
2019-02-08T09:47:55.155Z,2.13
2019-02-08T09:50:39.926Z,2.83
2019-02-08T09:53:23.119Z,1.77
2019-02-08T09:56:17.139Z,2.23
2019-02-08T09:59:21.434Z,2.60
2019-02-08T10:02:25.906Z,1.63
2019-02-08T10:05:13.907Z,3.20
2019-02-08T10:08:07.677Z,1.90
2019-02-08T10:11:08.990Z,2.80
2019-02-08T10:13:58.536Z,3.10
2019-02-08T10:16:46.318Z,2.37
2019-02-08T10:19:17.835Z,2.37
2019-02-08T10:22:05.482Z,2.13
2019-02-08T10:25:09.702Z,2.10
2019-02-08T10:28:00.795Z,2.63
2019-02-08T10:30:54.603Z,1.77
2019-02-08T10:33:52.958Z,2.30
2019-02-08T10:36:40.612Z,2.57
2019-02-08T10:39:26.470Z,1.77
2019-02-08T10:42:14.215Z,2.33
2019-02-08T10:44:56.914Z,1.40
2019-02-08T10:48:01.498Z,1.90
2019-02-08T10:50:32.994Z,1.50
2019-02-08T10:53:32.845Z,1.70
2019-02-08T10:56:39.169Z,1.73
2019-02-08T10:59:34.678Z,1.63
2019-02-08T11:02:11.615Z,1.47
2019-02-08T11:05:11.407Z,1.43
2019-02-08T11:07:59.205Z,1.87
2019-02-08T11:10:36.200Z,1.53
2019-02-08T11:13:39.126Z,1.47
2019-02-08T11:16:43.339Z,1.30
2019-02-08T11:19:17.096Z,1.80
2019-02-08T11:21:47.138Z,1.10
2019-02-08T11:24:17.410Z,1.60
2019-02-08T11:26:46.480Z,1.20
2019-02-08T11:29:14.928Z,1.53
2019-02-08T11:31:43.430Z,1.57
2019-02-08T11:34:11.879Z,1.37
2019-02-08T11:36:40.455Z,1.83
2019-02-08T11:39:14.020Z,1.40
2019-02-08T11:41:43.079Z,1.70
2019-02-08T11:44:11.595Z,1.97
2019-02-08T11:46:40.159Z,1.30
2019-02-08T11:49:08.747Z,1.53
2019-02-08T11:51:37.161Z,1.70
2019-02-08T11:54:06.063Z,1.63
2019-02-08T11:56:34.488Z,1.63
2019-02-08T11:59:03.042Z,1.60
2019-02-08T12:01:33.970Z,2.13
2019-02-08T12:04:02.458Z,6.10
2019-02-08T12:06:30.903Z,5.10
2019-02-08T12:08:59.322Z,2.67
2019-02-08T12:11:27.755Z,1.57
2019-02-08T12:13:56.186Z,1.20
2019-02-08T12:16:24.624Z,1.83
2019-02-08T12:18:53.130Z,1.23
2019-02-08T12:21:21.568Z,1.10
2019-02-08T12:23:49.994Z,1.40
2019-02-08T12:26:18.418Z,1.30
2019-02-08T12:28:46.838Z,1.23
2019-02-08T12:31:15.302Z,1.83
2019-02-08T12:33:43.731Z,1.20
2019-02-08T12:36:12.158Z,1.27
2019-02-08T12:38:40.594Z,1.33
2019-02-08T12:41:10.027Z,1.17
2019-02-08T12:43:38.538Z,1.00
2019-02-08T12:46:06.980Z,0.90
2019-02-08T12:48:36.482Z,1.10
2019-02-08T12:51:05.018Z,1.10
2019-02-08T12:53:33.430Z,1.33
2019-02-08T12:56:01.871Z,1.10
2019-02-08T12:58:30.297Z,1.33
2019-02-08T13:00:58.751Z,1.30
2019-02-08T13:03:27.162Z,1.23
2019-02-08T13:05:55.602Z,1.70
2019-02-08T13:08:24.090Z,1.30
2019-02-08T13:10:52.527Z,1.03
2019-02-08T13:13:20.948Z,1.50
2019-02-08T13:15:49.393Z,1.17
2019-02-08T13:18:17.831Z,1.20
2019-02-08T13:20:46.258Z,1.30
2019-02-08T13:23:14.680Z,1.33
2019-02-08T13:25:43.118Z,1.10
2019-02-08T13:28:11.544Z,1.13
2019-02-08T13:30:39.998Z,0.87
2019-02-08T13:33:08.425Z,1.20
2019-02-08T13:35:36.862Z,1.10
2019-02-08T13:38:05.299Z,1.30
2019-02-08T13:40:33.736Z,1.20
2019-02-08T13:43:02.236Z,1.43
2019-02-08T13:45:33.757Z,0.83
2019-02-08T13:48:02.172Z,1.17
2019-02-08T13:50:33.118Z,1.10
2019-02-08T13:53:01.533Z,1.10
2019-02-08T13:55:32.746Z,1.00
2019-02-08T13:58:01.163Z,1.50
2019-02-08T14:00:39.732Z,2.23
2019-02-08T14:03:09.059Z,1.33
2019-02-08T14:05:37.564Z,0.80
2019-02-08T14:08:06.651Z,1.00
2019-02-08T14:10:35.068Z,1.40
2019-02-08T14:13:03.503Z,1.70
2019-02-08T14:15:33.572Z,0.93
2019-02-08T14:18:01.999Z,1.53
2019-02-08T14:20:30.439Z,1.10
2019-02-08T14:22:58.855Z,1.10
2019-02-08T14:25:27.550Z,1.37
2019-02-08T14:27:56.000Z,1.23
2019-02-08T14:30:26.764Z,1.30
2019-02-08T14:32:55.943Z,1.27
2019-02-08T14:35:24.724Z,1.20
2019-02-08T14:37:53.565Z,1.20
2019-02-08T14:40:23.835Z,1.20
2019-02-08T14:42:52.706Z,1.97
2019-02-08T14:45:21.395Z,1.30
2019-02-08T14:47:49.890Z,2.23
2019-02-08T14:50:26.559Z,1.30
2019-02-08T14:52:55.390Z,1.30
2019-02-08T14:55:23.810Z,1.00
2019-02-08T14:57:54.613Z,1.40
2019-02-08T15:00:23.725Z,1.53
2019-02-08T15:02:52.560Z,1.50
2019-02-08T15:05:22.220Z,1.00
2019-02-08T15:07:50.739Z,1.40
2019-02-08T15:10:27.760Z,1.10
2019-02-08T15:12:56.330Z,1.23
2019-02-08T15:15:24.826Z,1.90
2019-02-08T15:17:53.329Z,1.90
2019-02-08T15:20:30.440Z,1.27
2019-02-08T15:22:58.878Z,2.10
2019-02-08T15:25:27.467Z,1.53
2019-02-08T15:27:56.062Z,1.50
2019-02-08T15:30:26.725Z,1.40
2019-02-08T15:32:55.228Z,1.13
2019-02-08T15:35:32.303Z,1.80
2019-02-08T15:38:00.892Z,1.60
2019-02-08T15:40:35.022Z,1.40
2019-02-08T15:43:03.797Z,1.07
2019-02-08T15:45:32.248Z,1.70
2019-02-08T15:48:00.767Z,1.10
2019-02-08T15:50:29.258Z,2.00
2019-02-08T15:52:57.760Z,1.30
2019-02-08T15:55:29.032Z,1.27
2019-02-08T15:57:57.600Z,1.37
2019-02-08T16:00:28.638Z,1.40
2019-02-08T16:02:57.296Z,1.43
2019-02-08T16:05:26.278Z,1.77
2019-02-08T16:07:54.858Z,1.90
2019-02-08T16:10:23.303Z,1.60
2019-02-08T16:12:51.719Z,1.50
2019-02-08T16:15:25.580Z,1.10
2019-02-08T16:17:54.071Z,1.47
2019-02-08T16:20:25.567Z,1.30
2019-02-08T16:22:54.433Z,1.47
2019-02-08T16:25:25.411Z,2.13
2019-02-08T16:27:54.008Z,1.80
2019-02-08T16:30:24.394Z,1.87
2019-02-08T16:32:52.890Z,1.33
2019-02-08T16:35:22.767Z,1.50
2019-02-08T16:37:51.331Z,1.40
2019-02-08T16:40:24.788Z,1.60
2019-02-08T16:42:53.187Z,1.30
2019-02-08T16:45:24.468Z,1.57
2019-02-08T16:47:54.223Z,1.90
2019-02-08T16:50:24.596Z,2.20
2019-02-08T16:52:53.084Z,1.77
2019-02-08T16:55:23.078Z,2.37
2019-02-08T16:57:51.736Z,1.40
2019-02-08T17:00:27.894Z,1.67
2019-02-08T17:02:57.957Z,1.40
2019-02-08T17:05:27.948Z,1.40
2019-02-08T17:07:56.383Z,1.83
2019-02-08T17:10:24.877Z,1.60
2019-02-08T17:12:53.375Z,1.40
2019-02-08T17:15:29.997Z,1.60
2019-02-08T17:17:58.969Z,1.30
2019-02-08T17:20:30.478Z,1.70
2019-02-08T17:22:59.063Z,1.80
2019-02-08T17:25:27.639Z,2.30
2019-02-08T17:27:56.349Z,3.10
2019-02-08T17:30:25.162Z,1.57
2019-02-08T17:32:53.589Z,1.77
2019-02-08T17:35:23.900Z,2.70
2019-02-08T17:37:52.394Z,2.00
2019-02-08T17:40:38.342Z,2.23
2019-02-08T17:43:06.883Z,2.63
2019-02-08T17:45:35.472Z,3.30
2019-02-08T17:48:05.818Z,2.50
2019-02-08T17:50:34.251Z,2.77
2019-02-08T17:53:02.672Z,2.87
2019-02-08T17:55:33.593Z,2.80
2019-02-08T17:58:03.722Z,2.33
2019-02-08T18:00:47.523Z,2.30
2019-02-08T18:03:16.086Z,2.33
2019-02-08T18:05:44.528Z,1.90
2019-02-08T18:08:13.117Z,3.00
2019-02-08T18:10:41.696Z,12.87
2019-02-08T18:13:10.272Z,6.33
2019-02-08T18:15:38.780Z,2.33
2019-02-08T18:18:09.446Z,2.17
2019-02-08T18:20:46.394Z,2.00
2019-02-08T18:23:14.827Z,1.40
2019-02-08T18:25:43.244Z,1.47
2019-02-08T18:28:11.678Z,1.53
2019-02-08T18:30:40.270Z,1.40
2019-02-08T18:33:08.699Z,1.33
2019-02-08T18:35:37.121Z,1.57
2019-02-08T18:38:06.399Z,2.03
2019-02-08T18:40:34.820Z,1.83
2019-02-08T18:43:03.263Z,1.40
2019-02-08T18:45:36.740Z,1.50
2019-02-08T18:48:06.429Z,1.80
2019-02-08T18:50:43.606Z,1.60
2019-02-08T18:53:12.032Z,1.40
2019-02-08T18:55:40.450Z,2.23
2019-02-08T18:58:08.903Z,3.00
2019-02-08T19:00:43.132Z,2.03
2019-02-08T19:03:11.568Z,2.77
2019-02-08T19:05:40.118Z,1.90
2019-02-08T19:08:08.635Z,1.50
2019-02-08T19:10:38.704Z,1.90
2019-02-08T19:13:07.326Z,2.43
2019-02-08T19:15:35.882Z,2.33
2019-02-08T19:18:05.073Z,2.30
2019-02-08T19:20:33.481Z,2.50
2019-02-08T19:23:01.994Z,4.70
2019-02-08T19:25:33.027Z,2.00
2019-02-08T19:28:01.527Z,1.73
2019-02-08T19:30:38.184Z,2.03
2019-02-08T19:33:07.257Z,2.13
2019-02-08T19:35:35.677Z,1.77
2019-02-08T19:38:04.938Z,2.20
2019-02-08T19:40:41.939Z,2.40
2019-02-08T19:43:10.393Z,1.77
2019-02-08T19:45:39.098Z,2.50
2019-02-08T19:48:08.875Z,1.77
2019-02-08T19:50:39.152Z,2.73
2019-02-08T19:53:08.330Z,2.53
2019-02-08T19:55:36.786Z,2.70
2019-02-08T19:58:06.548Z,2.90
2019-02-08T20:00:36.921Z,3.33
2019-02-08T20:03:06.474Z,3.00
2019-02-08T20:05:35.052Z,2.40
2019-02-08T20:08:03.959Z,2.63
2019-02-08T20:10:38.127Z,3.10
2019-02-08T20:13:06.732Z,2.30
2019-02-08T20:15:35.164Z,2.97
2019-02-08T20:18:03.835Z,2.60
2019-02-08T20:20:32.270Z,2.97
2019-02-08T20:23:00.750Z,3.83
2019-02-08T20:25:34.079Z,2.70
2019-02-08T20:28:02.525Z,3.13
2019-02-08T20:30:31.992Z,2.93
2019-02-08T20:33:00.758Z,2.60
2019-02-08T20:35:29.502Z,2.87
2019-02-08T20:37:58.862Z,2.50
2019-02-08T20:40:32.804Z,2.23
2019-02-08T20:43:01.228Z,2.53
2019-02-08T20:45:36.571Z,2.40
2019-02-08T20:48:13.750Z,3.03
2019-02-08T20:50:42.203Z,2.53
2019-02-08T20:53:10.614Z,2.27
2019-02-08T20:55:39.200Z,2.20
2019-02-08T20:58:10.462Z,2.97
2019-02-08T21:00:42.131Z,2.93
2019-02-08T21:03:12.824Z,2.47
2019-02-08T21:05:42.311Z,2.00
2019-02-08T21:08:11.754Z,2.60
2019-02-08T21:10:40.345Z,2.30
2019-02-08T21:13:09.910Z,2.50
2019-02-08T21:15:38.411Z,2.80
2019-02-08T21:18:07.654Z,3.03
2019-02-08T21:20:36.523Z,3.10
2019-02-08T21:23:05.577Z,2.43
2019-02-08T21:25:35.758Z,2.60
2019-02-08T21:28:04.617Z,3.00
2019-02-08T21:30:33.043Z,2.67
2019-02-08T21:33:01.624Z,2.20
2019-02-08T21:35:30.094Z,2.30
2019-02-08T21:37:58.518Z,2.60
2019-02-08T21:40:30.718Z,2.53
2019-02-08T21:42:59.233Z,2.97
2019-02-08T21:45:33.074Z,2.83
2019-02-08T21:48:01.660Z,2.60
2019-02-08T21:50:30.357Z,2.70
2019-02-08T21:52:59.122Z,2.33
2019-02-08T21:55:29.070Z,2.83
2019-02-08T21:57:57.506Z,2.30
2019-02-08T22:00:28.429Z,2.50
2019-02-08T22:02:57.497Z,2.80
2019-02-08T22:05:28.721Z,2.80
2019-02-08T22:07:57.230Z,2.63
2019-02-08T22:10:25.910Z,2.67
2019-02-08T22:12:54.346Z,2.50
2019-02-08T22:15:31.607Z,2.33
2019-02-08T22:18:00.114Z,2.30
2019-02-08T22:20:28.778Z,2.17
2019-02-08T22:22:57.215Z,2.60
2019-02-08T22:25:31.503Z,2.43
2019-02-08T22:28:00.024Z,2.40
2019-02-08T22:30:28.771Z,2.20
2019-02-08T22:33:02.096Z,2.90
2019-02-08T22:35:30.507Z,2.00
2019-02-08T22:37:59.021Z,3.00
2019-02-08T22:40:27.518Z,2.63
2019-02-08T22:42:55.955Z,1.93
2019-02-08T22:45:27.278Z,2.27
2019-02-08T22:47:55.780Z,2.07
2019-02-08T22:50:24.367Z,2.40
2019-02-08T22:52:52.884Z,2.43
2019-02-08T22:55:24.179Z,2.67
2019-02-08T22:57:52.594Z,2.23
2019-02-08T23:00:36.887Z,2.57
2019-02-08T23:03:13.529Z,2.20
2019-02-08T23:05:45.613Z,2.23
2019-02-08T23:08:12.386Z,3.13
2019-02-08T23:10:40.958Z,2.00
2019-02-08T23:13:12.869Z,2.20
2019-02-08T23:15:41.430Z,2.27
2019-02-08T23:18:10.799Z,2.50
2019-02-08T23:20:39.408Z,2.20
2019-02-08T23:23:08.359Z,2.20
2019-02-08T23:25:36.861Z,2.87
2019-02-08T23:28:05.630Z,1.90
2019-02-08T23:30:34.283Z,2.33
2019-02-08T23:33:02.703Z,2.67
2019-02-08T23:35:31.203Z,2.57
2019-02-08T23:37:59.630Z,2.90
2019-02-08T23:40:28.051Z,2.40
2019-02-08T23:42:56.472Z,2.07
2019-02-08T23:45:24.962Z,1.87
2019-02-08T23:47:53.387Z,2.03
2019-02-08T23:50:22.957Z,2.40
2019-02-08T23:52:51.445Z,2.70
2019-02-08T23:55:24.446Z,1.90
2019-02-08T23:57:52.935Z,2.23
